Time;durP1;ratioP1;P1;durP2;ratioP2;P2;SDS_P1;SDS_P2;PMS_P1;PMS_P2;Temp;Humidity;BMP_temperature;BMP_pressure;BME280_temperature;BME280_humidity;BME280_pressure;Samples;Min_cycle;Max_cycle;Signal;HPM_P1;HPM_P2
2023/07/28 00:01:28;;;;;;;10.55;4.85;;;;;;;13.33;100.00;96085.84;5001413;28;20697;-68
2023/07/28 00:03:54;;;;;;;9.70;4.97;;;;;;;13.37;100.00;96087.38;5001820;28;20042;-65
2023/07/28 00:06:19;;;;;;;7.22;4.85;;;;;;;13.44;100.00;96086.56;4997932;28;20045;-67
2023/07/28 00:08:44;;;;;;;7.03;4.70;;;;;;;13.52;100.00;96076.31;5003669;28;20084;-68
2023/07/28 00:11:12;;;;;;;10.38;5.20;;;;;;;13.64;100.00;96078.63;4997791;28;20136;-68
2023/07/28 00:13:38;;;;;;;10.25;4.85;;;;;;;13.66;100.00;96070.72;5003777;28;20104;-67
2023/07/28 00:16:05;;;;;;;7.15;4.93;;;;;;;13.62;100.00;96071.97;4999890;28;20495;-69
2023/07/28 00:18:30;;;;;;;10.27;4.32;;;;;;;13.70;100.00;96076.22;5002444;28;20077;-66
2023/07/28 00:20:55;;;;;;;8.90;5.25;;;;;;;13.79;100.00;96073.78;5001395;28;20092;-67
2023/07/28 00:23:21;;;;;;;10.65;5.40;;;;;;;13.83;100.00;96068.28;4997515;28;20539;-67
2023/07/28 00:25:46;;;;;;;8.50;5.13;;;;;;;13.72;100.00;96066.38;5000468;28;20041;-66
2023/07/28 00:28:11;;;;;;;7.20;4.88;;;;;;;13.64;100.00;96073.09;4996786;28;20037;-66
2023/07/28 00:30:37;;;;;;;8.50;4.55;;;;;;;13.58;100.00;96066.47;5001830;28;20049;-68
2023/07/28 00:33:02;;;;;;;7.10;4.95;;;;;;;13.55;100.00;96070.03;5000443;28;20133;-71
2023/07/28 00:35:28;;;;;;;7.85;4.72;;;;;;;13.48;100.00;96072.81;4999003;28;20785;-67
2023/07/28 00:37:53;;;;;;;6.35;4.43;;;;;;;13.41;100.00;96065.38;5004042;28;20491;-67
2023/07/28 00:40:18;;;;;;;11.90;5.75;;;;;;;13.38;100.00;96064.22;5014016;28;20069;-68
2023/07/28 00:42:45;;;;;;;8.20;4.70;;;;;;;13.47;100.00;96069.28;5015275;28;20046;-70
2023/07/28 00:45:10;;;;;;;8.68;4.70;;;;;;;13.42;100.00;96061.44;5003866;28;20053;-67
2023/07/28 00:47:36;;;;;;;9.55;4.90;;;;;;;13.44;100.00;96055.53;5002131;28;20120;-67
2023/07/28 00:50:02;;;;;;;7.50;4.80;;;;;;;13.42;100.00;96055.94;5001063;28;20041;-69
2023/07/28 00:52:28;;;;;;;8.70;5.03;;;;;;;13.41;100.00;96053.59;4997848;28;20132;-68
2023/07/28 00:54:54;;;;;;;8.63;5.32;;;;;;;13.30;100.00;96051.63;5001192;28;20160;-66
2023/07/28 00:57:19;;;;;;;9.20;5.38;;;;;;;13.11;100.00;96046.63;4996104;28;20046;-68
2023/07/28 00:59:45;;;;;;;8.02;5.45;;;;;;;12.99;100.00;96045.88;5001619;28;20034;-66
2023/07/28 01:02:12;;;;;;;9.55;5.32;;;;;;;12.93;100.00;96039.22;4995721;28;20430;-67
2023/07/28 01:04:37;;;;;;;12.32;5.57;;;;;;;12.91;100.00;96040.78;5001225;28;20490;-68
2023/07/28 01:07:21;;;;;;;11.80;5.22;;;;;;;12.85;100.00;96037.69;4999924;28;20038;-72
2023/07/28 01:10:10;;;;;;;10.52;6.35;;;;;;;12.86;100.00;96039.25;5003216;28;20133;-68
2023/07/28 01:12:36;;;;;;;7.70;5.90;;;;;;;12.73;100.00;96030.66;5000936;28;20057;-68
2023/07/28 01:15:02;;;;;;;11.90;7.10;;;;;;;12.80;100.00;96027.09;5000738;28;20034;-70
2023/07/28 01:17:27;;;;;;;9.43;6.50;;;;;;;12.85;100.00;96023.16;4998035;28;20621;-67
2023/07/28 01:19:53;;;;;;;10.93;6.30;;;;;;;12.98;100.00;96021.53;5001313;28;20034;-67
2023/07/28 01:22:21;;;;;;;10.05;5.95;;;;;;;12.86;100.00;96014.53;4995850;28;20081;-67
2023/07/28 01:24:50;;;;;;;10.95;6.03;;;;;;;12.75;100.00;96005.53;5001793;28;20057;-65
2023/07/28 01:27:17;;;;;;;8.65;5.70;;;;;;;12.74;100.00;96002.00;4996964;28;20049;-68
2023/07/28 01:29:42;;;;;;;11.48;5.50;;;;;;;12.79;100.00;96009.81;5001792;28;20124;-67
2023/07/28 01:32:10;;;;;;;8.13;5.57;;;;;;;12.90;100.00;96004.28;4996292;28;20201;-68
2023/07/28 01:34:35;;;;;;;8.18;5.35;;;;;;;12.92;100.00;96001.16;5013515;28;20030;-68
2023/07/28 01:37:01;;;;;;;8.73;4.47;;;;;;;12.96;100.00;96001.91;5010181;28;20045;-67
2023/07/28 01:39:26;;;;;;;10.48;5.60;;;;;;;13.03;100.00;96010.13;4997523;28;20108;-66
2023/07/28 01:41:51;;;;;;;10.48;5.53;;;;;;;13.10;100.00;96004.59;5003164;28;20056;-66
2023/07/28 01:44:17;;;;;;;8.40;5.00;;;;;;;13.19;100.00;96006.91;4998731;28;20447;-66
2023/07/28 01:46:42;;;;;;;8.25;5.05;;;;;;;13.19;100.00;96010.44;5003042;28;20076;-66
2023/07/28 01:49:08;;;;;;;10.38;5.05;;;;;;;13.23;100.00;96017.91;4997047;28;20495;-67
2023/07/28 01:51:33;;;;;;;9.10;4.60;;;;;;;13.34;100.00;96019.44;5000152;28;20041;-66
2023/07/28 01:53:58;;;;;;;7.72;4.70;;;;;;;13.33;100.00;96009.63;5001240;28;20049;-66
2023/07/28 01:56:24;;;;;;;9.75;4.88;;;;;;;13.35;100.00;96011.97;4995112;28;20065;-67
2023/07/28 01:58:49;;;;;;;7.90;4.30;;;;;;;13.22;100.00;96021.81;5001164;28;20369;-65
2023/07/28 02:01:14;;;;;;;6.43;4.65;;;;;;;13.11;100.00;96021.91;4997728;28;20045;-66
2023/07/28 02:03:40;;;;;;;6.60;4.18;;;;;;;13.18;100.00;96028.13;5002060;28;20518;-67
2023/07/28 02:06:05;;;;;;;7.75;4.00;;;;;;;13.22;100.00;96016.31;4996773;28;20042;-67
2023/07/28 02:08:30;;;;;;;11.25;4.70;;;;;;;13.32;100.00;96016.28;5000084;28;20046;-68
2023/07/28 02:10:56;;;;;;;8.70;4.13;;;;;;;13.49;100.00;96014.63;5004435;28;20042;-67
2023/07/28 02:13:21;;;;;;;8.50;4.28;;;;;;;13.55;100.00;96009.50;4999507;28;20365;-67
2023/07/28 02:15:46;;;;;;;8.10;4.32;;;;;;;13.50;100.00;96009.91;5002599;28;20040;-68
2023/07/28 02:18:12;;;;;;;5.05;3.72;;;;;;;13.46;100.00;96011.91;4996980;28;20044;-67
2023/07/28 02:20:38;;;;;;;11.77;3.90;;;;;;;13.45;100.00;96018.59;5002210;28;20107;-67
2023/07/28 02:23:04;;;;;;;7.95;4.28;;;;;;;13.43;100.00;96024.47;4998191;28;20089;-69
2023/07/28 02:25:29;;;;;;;9.30;4.65;;;;;;;13.51;100.00;96019.75;5000790;28;20049;-66
2023/07/28 02:27:55;;;;;;;10.55;5.30;;;;;;;13.62;100.00;96025.97;5002407;28;20133;-69
2023/07/28 02:30:20;;;;;;;11.07;5.05;;;;;;;13.79;100.00;96023.47;5001370;28;20438;-65
2023/07/28 02:32:46;;;;;;;5.78;4.32;;;;;;;13.85;100.00;96030.16;5007026;28;20491;-68
2023/07/28 02:35:11;;;;;;;8.20;4.60;;;;;;;13.86;100.00;96026.19;4999543;28;20045;-67
2023/07/28 02:37:36;;;;;;;6.78;4.30;;;;;;;13.76;100.00;96017.59;5004661;28;20104;-68
2023/07/28 02:40:03;;;;;;;9.05;4.85;;;;;;;13.66;100.00;96026.72;5003676;28;20137;-67
2023/07/28 02:42:28;;;;;;;11.05;5.00;;;;;;;13.75;100.00;96037.28;5000955;28;20128;-66
2023/07/28 02:44:53;;;;;;;9.23;4.32;;;;;;;13.81;100.00;96043.94;5004504;28;20142;-72
2023/07/28 02:47:19;;;;;;;8.10;4.85;;;;;;;13.94;100.00;96053.25;5001071;28;20698;-67
2023/07/28 02:49:45;;;;;;;6.97;4.55;;;;;;;13.94;100.00;96058.00;5003244;28;20058;-67
2023/07/28 02:52:11;;;;;;;8.73;4.97;;;;;;;13.89;100.00;96061.16;5002262;28;20042;-67
2023/07/28 02:54:36;;;;;;;6.78;5.13;;;;;;;13.83;100.00;96060.00;5005640;28;20050;-65
2023/07/28 02:57:02;;;;;;;8.20;4.68;;;;;;;13.91;100.00;96070.56;5003604;28;20084;-68
2023/07/28 02:59:27;;;;;;;7.68;4.57;;;;;;;13.95;100.00;96076.06;4998367;28;20038;-66
2023/07/28 03:01:52;;;;;;;13.10;4.53;;;;;;;13.98;100.00;96071.72;5005422;28;20042;-67
2023/07/28 03:04:21;;;;;;;7.95;4.78;;;;;;;13.95;100.00;96067.81;5016420;28;20045;-66
2023/07/28 03:06:47;;;;;;;7.38;4.63;;;;;;;13.94;100.00;96066.25;5021939;28;20037;-70
2023/07/28 03:09:13;;;;;;;8.73;5.57;;;;;;;13.88;100.00;96076.09;5005466;28;20180;-69
2023/07/28 03:11:38;;;;;;;6.80;4.95;;;;;;;13.99;100.00;96073.28;5003131;28;20085;-68
2023/07/28 03:14:03;;;;;;;10.32;4.75;;;;;;;14.10;100.00;96096.81;5000924;28;20042;-69
2023/07/28 03:16:29;;;;;;;7.05;4.20;;;;;;;14.23;100.00;96105.38;5002627;28;20566;-66
2023/07/28 03:18:54;;;;;;;6.97;4.70;;;;;;;14.26;100.00;96107.31;5002566;28;20447;-66
2023/07/28 03:21:19;;;;;;;7.97;4.93;;;;;;;14.29;100.00;96120.25;4997227;28;20100;-66
2023/07/28 03:23:45;;;;;;;6.78;4.70;;;;;;;14.34;100.00;96124.56;5004724;28;20046;-66
2023/07/28 03:26:10;;;;;;;5.55;4.38;;;;;;;14.39;100.00;96124.13;5001513;28;20678;-67
2023/07/28 03:28:36;;;;;;;12.48;4.68;;;;;;;14.38;100.00;96119.81;5015749;28;20545;-68
2023/07/28 03:31:01;;;;;;;12.10;4.57;;;;;;;14.33;100.00;96121.03;5021096;28;20038;-69
2023/07/28 03:33:26;;;;;;;8.27;5.03;;;;;;;14.30;100.00;96121.84;5005643;28;20049;-67
2023/07/28 03:35:52;;;;;;;9.73;4.80;;;;;;;14.33;100.00;96117.47;5004930;28;20132;-68
2023/07/28 03:38:18;;;;;;;8.40;4.60;;;;;;;14.36;100.00;96118.66;4997974;28;20679;-68
2023/07/28 03:40:43;;;;;;;11.27;4.55;;;;;;;14.35;100.00;96128.91;5003987;28;20046;-67
2023/07/28 03:43:09;;;;;;;8.52;4.80;;;;;;;14.33;100.00;96123.00;4998356;28;20592;-69
2023/07/28 03:45:34;;;;;;;10.95;5.07;;;;;;;14.33;100.00;96114.72;5002899;28;20125;-67
2023/07/28 03:48:00;;;;;;;8.75;5.22;;;;;;;14.38;100.00;96119.03;5003524;28;20073;-71
2023/07/28 03:50:26;;;;;;;12.40;6.13;;;;;;;14.19;100.00;96121.16;4998261;28;20036;-70
2023/07/28 03:52:52;;;;;;;9.88;5.60;;;;;;;14.13;100.00;96123.56;5003849;28;20042;-67
2023/07/28 03:55:17;;;;;;;8.02;5.25;;;;;;;14.24;100.00;96126.22;4996505;28;20125;-66
2023/07/28 03:57:42;;;;;;;6.78;5.10;;;;;;;14.40;100.00;96114.66;5002862;28;20042;-69
2023/07/28 04:00:08;;;;;;;10.57;4.90;;;;;;;14.31;100.00;96117.91;4997338;28;20072;-66
2023/07/28 04:02:33;;;;;;;6.43;4.40;;;;;;;14.30;100.00;96129.34;5002618;28;20056;-66
2023/07/28 04:04:59;;;;;;;10.27;5.10;;;;;;;14.18;100.00;96125.06;5002954;28;20115;-66
2023/07/28 04:07:25;;;;;;;9.77;4.90;;;;;;;14.21;100.00;96123.50;4997987;28;20128;-66
2023/07/28 04:09:50;;;;;;;7.65;4.47;;;;;;;14.25;100.00;96133.28;5002433;28;20519;-66
2023/07/28 04:12:15;;;;;;;9.10;5.15;;;;;;;14.24;100.00;96128.19;4998269;28;20069;-66
2023/07/28 04:14:41;;;;;;;8.93;4.70;;;;;;;14.12;100.00;96132.97;5003107;28;20053;-66
2023/07/28 04:17:07;;;;;;;7.85;4.97;;;;;;;14.17;100.00;96139.25;4999293;28;20542;-67
2023/07/28 04:19:33;;;;;;;8.23;5.20;;;;;;;14.11;100.00;96136.91;5001572;28;20191;-66
2023/07/28 04:22:00;;;;;;;9.93;5.38;;;;;;;14.04;100.00;96136.19;5002555;28;20076;-66
2023/07/28 04:24:26;;;;;;;9.73;5.40;;;;;;;14.02;100.00;96135.81;4998791;28;20042;-66
2023/07/28 04:26:51;;;;;;;8.20;5.05;;;;;;;14.00;100.00;96141.72;5003638;28;20057;-67
2023/07/28 04:29:16;;;;;;;9.38;4.95;;;;;;;14.08;100.00;96164.47;4998989;28;20064;-69
2023/07/28 04:31:42;;;;;;;9.68;5.72;;;;;;;14.05;100.00;96157.81;5002129;28;20399;-64
2023/07/28 04:34:07;;;;;;;8.57;5.45;;;;;;;14.12;100.00;96162.50;4999202;28;20037;-67
2023/07/28 04:36:33;;;;;;;14.25;5.85;;;;;;;14.14;100.00;96166.41;5001783;28;20407;-66
2023/07/28 04:38:58;;;;;;;10.05;6.05;;;;;;;14.04;100.00;96158.97;5003626;28;20490;-66
2023/07/28 04:41:23;;;;;;;8.68;5.43;;;;;;;13.92;100.00;96154.75;4997388;28;20962;-68
2023/07/28 04:43:49;;;;;;;10.07;6.32;;;;;;;13.71;100.00;96154.84;5003039;28;20042;-66
2023/07/28 04:46:14;;;;;;;9.00;6.40;;;;;;;13.57;100.00;96147.44;4997409;28;20034;-66
2023/07/28 04:48:41;;;;;;;8.88;6.72;;;;;;;13.49;100.00;96145.91;5000370;28;20105;-66
2023/07/28 04:51:07;;;;;;;12.50;7.88;;;;;;;13.48;100.00;96138.81;4997968;28;20069;-66
2023/07/28 04:53:32;;;;;;;16.35;10.75;;;;;;;13.51;100.00;96151.78;5000976;28;20100;-66
2023/07/28 04:55:57;;;;;;;13.50;10.38;;;;;;;13.62;100.00;96158.03;5004788;28;20048;-66
2023/07/28 04:58:23;;;;;;;13.50;9.82;;;;;;;13.79;100.00;96163.84;4996405;28;20259;-65
2023/07/28 05:00:48;;;;;;;14.77;8.70;;;;;;;14.03;100.00;96162.94;5002282;28;20137;-65
2023/07/28 05:03:14;;;;;;;12.25;7.15;;;;;;;14.29;100.00;96158.06;4994413;28;20136;-66
2023/07/28 05:05:44;;;;;;;11.13;8.38;;;;;;;14.50;100.00;96163.41;5001764;28;20046;-67
2023/07/28 05:08:09;;;;;;;12.07;7.95;;;;;;;14.61;100.00;96163.34;4997805;28;20446;-66
2023/07/28 05:10:34;;;;;;;11.38;6.85;;;;;;;14.77;100.00;96167.56;5001840;28;20038;-68
2023/07/28 05:13:00;;;;;;;6.72;5.55;;;;;;;14.89;100.00;96159.56;5000375;28;20483;-67
2023/07/28 05:15:25;;;;;;;11.45;6.32;;;;;;;14.89;100.00;96172.56;4995918;28;20038;-67
2023/07/28 05:17:50;;;;;;;9.30;6.20;;;;;;;14.89;100.00;96173.34;5002337;28;20373;-67
2023/07/28 05:20:16;;;;;;;11.40;7.13;;;;;;;14.91;100.00;96176.50;4995963;28;20431;-66
2023/07/28 05:22:41;;;;;;;10.40;6.00;;;;;;;14.95;100.00;96170.94;5000734;28;20052;-67
2023/07/28 05:25:07;;;;;;;11.43;6.07;;;;;;;15.16;100.00;96182.94;4997953;28;20042;-67
2023/07/28 05:27:32;;;;;;;7.57;4.90;;;;;;;15.43;100.00;96174.78;5004903;28;20168;-67
2023/07/28 05:29:58;;;;;;;8.90;5.03;;;;;;;15.46;100.00;96177.50;5008789;28;20483;-67
2023/07/28 05:32:23;;;;;;;8.90;5.05;;;;;;;15.43;100.00;96172.81;5004587;28;20038;-67
2023/07/28 05:34:49;;;;;;;10.20;4.95;;;;;;;15.62;100.00;96167.88;5004521;28;20045;-67
2023/07/28 05:37:14;;;;;;;11.60;4.97;;;;;;;15.43;100.00;96174.78;4997235;28;20662;-66
2023/07/28 05:39:40;;;;;;;9.35;5.03;;;;;;;15.58;100.00;96178.19;5001734;28;20049;-68
2023/07/28 05:42:05;;;;;;;9.18;5.43;;;;;;;15.49;100.00;96179.44;4997319;28;20584;-67
2023/07/28 05:44:31;;;;;;;8.32;5.18;;;;;;;15.30;100.00;96182.81;5002863;28;20057;-66
2023/07/28 05:46:56;;;;;;;6.47;5.50;;;;;;;15.29;100.00;96184.00;5000637;28;20133;-66
2023/07/28 05:49:21;;;;;;;8.88;5.80;;;;;;;15.40;100.00;96184.66;4995399;28;20569;-66
2023/07/28 05:51:47;;;;;;;10.98;5.88;;;;;;;15.33;100.00;96179.22;5000964;28;20041;-68
2023/07/28 05:54:16;;;;;;;9.00;5.80;;;;;;;15.51;100.00;96173.50;4998302;28;20115;-66
2023/07/28 05:56:42;;;;;;;8.75;5.00;;;;;;;15.70;100.00;96179.59;5001351;28;20499;-68
2023/07/28 05:59:07;;;;;;;8.25;5.10;;;;;;;16.40;100.00;96188.16;4996492;28;20053;-68
2023/07/28 06:01:33;;;;;;;12.65;8.07;;;;;;;17.11;100.00;96190.22;5001269;28;20038;-68
2023/07/28 06:03:59;;;;;;;6.97;4.63;;;;;;;17.75;100.00;96194.56;4987101;28;20084;-68
2023/07/28 06:06:27;;;;;;;7.03;3.97;;;;;;;17.51;100.00;96204.13;5000967;28;20038;-68
2023/07/28 06:08:53;;;;;;;8.27;4.28;;;;;;;17.15;100.00;96200.03;5005982;28;20042;-68
2023/07/28 06:11:19;;;;;;;6.78;4.25;;;;;;;17.17;100.00;96200.38;5000724;28;20069;-66
2023/07/28 06:13:46;;;;;;;6.57;4.80;;;;;;;17.20;100.00;96198.75;5005135;28;20128;-67
2023/07/28 06:16:11;;;;;;;7.38;3.67;;;;;;;19.15;100.00;96206.53;5001208;28;20037;-67
2023/07/28 06:18:37;;;;;;;14.77;4.95;;;;;;;20.48;100.00;96214.00;5004868;28;20372;-66
2023/07/28 06:21:03;;;;;;;7.72;3.75;;;;;;;22.03;100.00;96212.44;5003125;28;20077;-68
2023/07/28 06:23:28;;;;;;;8.45;3.47;;;;;;;21.24;100.00;96209.59;5004255;28;20475;-68
2023/07/28 06:25:54;;;;;;;7.47;4.03;;;;;;;19.32;100.00;96207.28;5006842;28;20037;-68
2023/07/28 06:28:20;;;;;;;9.25;4.35;;;;;;;19.00;100.00;96201.34;5001868;28;20046;-67
2023/07/28 06:30:45;;;;;;;5.22;3.60;;;;;;;19.37;100.00;96198.44;5009024;28;20044;-68
2023/07/28 06:33:11;;;;;;;10.40;4.07;;;;;;;19.09;100.00;96197.97;5000436;28;20042;-66
2023/07/28 06:35:36;;;;;;;7.38;4.07;;;;;;;19.21;100.00;96202.81;5004972;28;20137;-66
2023/07/28 06:38:02;;;;;;;8.75;3.75;;;;;;;19.30;100.00;96207.72;5004389;28;20073;-69
2023/07/28 06:40:28;;;;;;;6.97;4.20;;;;;;;19.45;100.00;96208.91;5002403;28;20554;-68
2023/07/28 06:42:53;;;;;;;7.18;4.32;;;;;;;19.43;100.00;96208.56;5005025;28;20034;-67
2023/07/28 06:45:19;;;;;;;8.00;4.30;;;;;;;19.81;100.00;96209.97;5000082;28;20050;-66
2023/07/28 06:47:45;;;;;;;7.85;4.25;;;;;;;20.40;100.00;96202.28;5004701;28;20129;-66
2023/07/28 06:50:11;;;;;;;7.30;4.00;;;;;;;21.34;100.00;96217.59;4999611;28;20518;-66
2023/07/28 06:52:37;;;;;;;6.72;3.88;;;;;;;22.82;95.51;96215.03;5003422;28;20101;-67
2023/07/28 06:55:03;;;;;;;5.78;3.50;;;;;;;22.77;86.71;96224.00;5003585;28;20037;-68
2023/07/28 06:57:30;;;;;;;6.85;3.10;;;;;;;22.40;89.67;96237.78;5002517;28;20046;-68
2023/07/28 06:59:56;;;;;;;6.78;3.33;;;;;;;22.84;84.70;96238.47;5002002;28;20053;-66
2023/07/28 07:02:21;;;;;;;7.85;3.58;;;;;;;23.16;82.33;96249.63;4999675;28;20042;-66
2023/07/28 07:04:47;;;;;;;6.18;3.30;;;;;;;23.18;82.46;96245.13;5003855;28;20053;-67
2023/07/28 07:07:12;;;;;;;9.43;3.53;;;;;;;23.07;83.57;96239.19;4999409;28;20042;-68
2023/07/28 07:09:37;;;;;;;5.25;2.95;;;;;;;23.27;82.10;96241.56;5007532;28;20107;-66
2023/07/28 07:12:03;;;;;;;6.43;3.38;;;;;;;23.44;80.58;96239.25;5000293;28;20038;-72
2023/07/28 07:14:29;;;;;;;4.18;2.90;;;;;;;23.52;79.95;96246.13;5000008;28;20038;-67
2023/07/28 07:16:54;;;;;;;6.72;3.30;;;;;;;23.77;78.94;96258.22;5003715;28;20137;-66
2023/07/28 07:19:20;;;;;;;8.02;3.03;;;;;;;24.12;76.99;96252.38;4998975;28;20081;-66
2023/07/28 07:21:45;;;;;;;7.35;2.78;;;;;;;24.12;75.26;96253.13;5004068;28;20530;-68
2023/07/28 07:24:13;;;;;;;5.82;2.80;;;;;;;23.82;76.39;96250.06;4998181;28;20104;-66
2023/07/28 07:26:39;;;;;;;5.88;3.83;;;;;;;22.98;84.29;96247.53;5003185;28;20042;-67
2023/07/28 07:29:05;;;;;;;5.57;3.35;;;;;;;23.56;79.70;96249.53;4998297;28;20042;-67
2023/07/28 07:31:30;;;;;;;6.53;3.05;;;;;;;23.65;76.50;96248.75;5003337;28;20120;-68
2023/07/28 07:33:55;;;;;;;5.32;2.78;;;;;;;23.50;76.16;96247.81;5003255;28;20060;-68
2023/07/28 07:36:21;;;;;;;4.88;2.90;;;;;;;23.64;76.29;96248.00;4998824;28;22115;-67
2023/07/28 07:38:47;;;;;;;4.45;2.65;;;;;;;23.62;77.21;96250.50;5001054;28;20076;-69
2023/07/28 07:41:19;;;;;;;6.85;3.20;;;;;;;23.15;80.96;96257.22;4999270;28;20046;-66
2023/07/28 07:43:44;;;;;;;7.20;2.97;;;;;;;23.23;81.32;96250.09;5001053;28;20057;-68
2023/07/28 07:46:10;;;;;;;4.82;3.30;;;;;;;23.40;83.26;96247.03;4998585;28;20046;-68
2023/07/28 07:48:35;;;;;;;4.68;2.70;;;;;;;24.21;78.19;96246.75;5003416;28;20050;-68
2023/07/28 07:51:00;;;;;;;3.72;2.72;;;;;;;25.41;71.23;96254.75;5003820;28;20046;-67
2023/07/28 07:53:26;;;;;;;5.82;2.75;;;;;;;27.01;62.90;96266.44;5006572;28;20045;-67
2023/07/28 07:55:51;;;;;;;6.50;2.78;;;;;;;27.54;59.66;96272.31;5004221;28;20544;-66
2023/07/28 07:58:17;;;;;;;5.63;2.50;;;;;;;27.45;59.45;96265.56;4997331;28;20065;-66
2023/07/28 08:00:43;;;;;;;5.78;2.60;;;;;;;27.88;56.03;96264.31;5002765;28;20034;-69
2023/07/28 08:03:10;;;;;;;6.32;2.47;;;;;;;28.01;54.11;96270.38;4998181;28;20079;-68
2023/07/28 08:05:35;;;;;;;6.68;3.40;;;;;;;28.36;54.54;96281.50;4998693;28;20516;-66
2023/07/28 08:08:01;;;;;;;9.02;4.07;;;;;;;29.25;50.84;96271.53;5004633;28;20049;-68
2023/07/28 08:10:27;;;;;;;9.20;3.70;;;;;;;29.73;47.87;96282.06;5001012;28;20100;-69
2023/07/28 08:12:53;;;;;;;6.82;2.17;;;;;;;30.55;47.38;96293.94;5003804;28;20038;-68
2023/07/28 08:15:19;;;;;;;4.25;2.17;;;;;;;30.28;44.83;96290.50;5002738;28;20054;-69
2023/07/28 08:17:45;;;;;;;5.40;2.10;;;;;;;28.73;49.09;96282.91;5005279;28;20046;-68
2023/07/28 08:20:10;;;;;;;5.35;2.33;;;;;;;29.39;46.63;96289.59;4996971;28;20108;-65
2023/07/28 08:22:36;;;;;;;4.28;2.55;;;;;;;30.05;46.51;96290.47;5001904;28;20046;-68
2023/07/28 08:25:01;;;;;;;6.65;2.15;;;;;;;29.77;45.06;96289.56;5002386;28;20085;-68
2023/07/28 08:27:27;;;;;;;5.50;2.38;;;;;;;29.55;46.75;96288.91;4997918;28;20034;-68
2023/07/28 08:29:52;;;;;;;4.07;2.25;;;;;;;29.33;48.04;96285.94;5003584;28;20046;-67
2023/07/28 08:32:17;;;;;;;4.57;2.20;;;;;;;29.22;48.08;96277.41;4997688;28;20057;-68
2023/07/28 08:34:43;;;;;;;6.43;2.42;;;;;;;29.49;47.25;96268.34;5003755;28;20037;-67
2023/07/28 08:37:09;;;;;;;4.97;2.30;;;;;;;29.04;46.68;96282.13;4998941;28;20530;-68
2023/07/28 08:39:34;;;;;;;3.15;1.75;;;;;;;29.88;44.93;96281.16;5002838;28;20501;-68
2023/07/28 08:42:01;;;;;;;3.45;2.00;;;;;;;28.77;47.03;96272.97;5003175;28;20050;-68
2023/07/28 08:44:31;;;;;;;3.10;1.98;;;;;;;28.50;46.45;96282.66;5013986;28;20037;-68
2023/07/28 08:46:56;;;;;;;4.05;2.00;;;;;;;28.81;46.37;96272.75;5001518;28;20046;-68
2023/07/28 08:49:22;;;;;;;5.00;2.17;;;;;;;29.58;44.96;96275.06;4993200;28;20138;-68
2023/07/28 08:51:51;;;;;;;3.80;2.05;;;;;;;29.19;44.63;96276.38;5001489;28;20048;-68
2023/07/28 08:54:16;;;;;;;4.43;2.15;;;;;;;28.91;45.69;96274.09;4996745;28;20041;-69
2023/07/28 08:56:43;;;;;;;2.92;1.77;;;;;;;29.36;43.69;96273.66;5002878;28;20538;-68
2023/07/28 08:59:09;;;;;;;7.38;2.22;;;;;;;28.15;46.35;96269.50;4996497;28;20041;-69
2023/07/28 09:01:40;;;;;;;4.40;1.90;;;;;;;28.83;45.48;96275.81;5003551;28;20048;-68
2023/07/28 09:04:10;;;;;;;4.68;2.33;;;;;;;29.44;44.45;96273.94;5001314;28;20487;-66
2023/07/28 09:06:36;;;;;;;3.78;2.08;;;;;;;28.79;45.83;96281.69;5002790;28;20110;-67
2023/07/28 09:09:01;;;;;;;3.83;2.30;;;;;;;27.95;47.00;96275.94;5003589;28;20073;-68
2023/07/28 09:11:27;;;;;;;9.05;2.10;;;;;;;28.16;47.00;96273.88;5002465;28;20057;-68
2023/07/28 09:13:54;;;;;;;5.38;2.20;;;;;;;27.28;48.51;96275.81;5002176;28;20041;-69
2023/07/28 09:16:20;;;;;;;7.90;2.33;;;;;;;27.52;49.17;96277.66;4996912;28;20046;-66
2023/07/28 09:18:47;;;;;;;3.63;2.13;;;;;;;27.39;49.59;96273.16;5001022;28;20463;-68
2023/07/28 09:21:21;;;;;;;4.32;2.40;;;;;;;26.80;52.00;96278.88;4997708;28;20042;-68
2023/07/28 09:23:47;;;;;;;4.05;2.10;;;;;;;26.57;52.58;96274.88;5001019;28;20069;-68
2023/07/28 09:26:14;;;;;;;3.03;2.00;;;;;;;26.54;52.74;96278.63;4994931;28;20049;-67
2023/07/28 09:28:41;;;;;;;3.03;2.13;;;;;;;26.72;53.54;96291.75;5001806;28;20080;-67
2023/07/28 09:31:07;;;;;;;5.00;2.42;;;;;;;26.46;52.97;96286.69;4996043;28;20038;-67
2023/07/28 09:33:35;;;;;;;6.70;2.30;;;;;;;25.71;54.94;96283.69;5000142;28;20561;-67
2023/07/28 09:36:11;;;;;;;7.47;2.72;;;;;;;25.88;55.15;96280.47;5001456;28;20107;-67
2023/07/28 09:38:41;;;;;;;3.80;2.63;;;;;;;25.62;55.59;96286.53;5000641;28;20141;-66
2023/07/28 09:41:11;;;;;;;3.72;2.30;;;;;;;25.81;55.44;96286.44;4995364;28;20111;-67
2023/07/28 09:43:41;;;;;;;3.90;2.55;;;;;;;25.69;56.67;96283.38;5003714;28;20064;-68
2023/07/28 09:46:08;;;;;;;6.45;2.35;;;;;;;25.49;57.38;96278.38;4998678;28;20073;-68
2023/07/28 09:48:36;;;;;;;6.82;2.60;;;;;;;25.89;57.24;96276.38;5016714;28;20092;-68
2023/07/28 09:51:19;;;;;;;4.68;2.20;;;;;;;25.94;57.64;96276.50;5000450;28;20042;-69
2023/07/28 09:53:58;;;;;;;5.75;2.22;;;;;;;25.87;56.25;96273.28;4999834;28;20065;-68
2023/07/28 09:56:29;;;;;;;6.32;3.10;;;;;;;25.88;56.91;96272.81;4995119;28;20526;-67
2023/07/28 09:58:57;;;;;;;6.43;2.78;;;;;;;26.42;54.90;96272.06;5000984;28;20069;-69
2023/07/28 10:01:23;;;;;;;5.20;2.40;;;;;;;26.80;54.39;96264.81;4994239;28;20076;-67
2023/07/28 10:03:49;;;;;;;5.25;2.58;;;;;;;26.99;52.92;96266.16;5000454;28;20390;-67
2023/07/28 10:06:16;;;;;;;5.47;2.22;;;;;;;27.81;51.86;96271.91;4995370;28;20042;-68
2023/07/28 10:08:43;;;;;;;4.13;2.40;;;;;;;28.20;50.14;96268.78;5002141;28;20125;-66
2023/07/28 10:11:11;;;;;;;4.18;2.33;;;;;;;28.55;49.87;96256.63;4994905;28;20042;-68
2023/07/28 10:13:42;;;;;;;4.90;2.30;;;;;;;28.57;48.61;96256.88;5001074;28;20049;-68
2023/07/28 10:16:09;;;;;;;3.42;2.42;;;;;;;28.69;48.09;96273.91;5004104;28;20070;-68
2023/07/28 10:18:34;;;;;;;5.10;2.53;;;;;;;28.24;48.18;96270.63;5014055;28;20132;-68
2023/07/28 10:21:10;;;;;;;5.95;2.80;;;;;;;28.32;46.42;96264.03;5007197;28;20657;-69
2023/07/28 10:23:38;;;;;;;5.20;2.35;;;;;;;28.60;46.60;96267.16;4999706;28;20041;-68
2023/07/28 10:26:05;;;;;;;4.45;2.20;;;;;;;28.69;46.39;96273.91;4999499;28;20128;-68
2023/07/28 10:28:40;;;;;;;9.43;2.70;;;;;;;29.00;45.43;96272.38;5000276;28;20046;-67
2023/07/28 10:31:07;;;;;;;5.53;2.53;;;;;;;28.77;46.95;96272.97;4995587;28;20038;-68
2023/07/28 10:33:41;;;;;;;7.35;2.33;;;;;;;28.77;46.60;96263.72;4999954;28;20592;-67
2023/07/28 10:36:15;;;;;;;4.72;2.17;;;;;;;29.41;45.10;96264.47;4994595;28;20112;-66
2023/07/28 10:38:43;;;;;;;7.90;2.45;;;;;;;29.77;42.79;96272.63;5000436;28;20128;-69
2023/07/28 10:41:12;;;;;;;4.97;2.25;;;;;;;28.89;45.11;96273.06;4995190;28;20406;-67
2023/07/28 10:43:37;;;;;;;8.52;2.75;;;;;;;28.83;46.00;96263.75;5000491;28;20042;-68
2023/07/28 10:46:08;;;;;;;4.30;2.55;;;;;;;28.25;46.85;96269.34;4996143;28;20038;-70
2023/07/28 10:48:42;;;;;;;3.83;2.15;;;;;;;28.62;46.36;96263.09;4999399;28;20110;-69
2023/07/28 10:51:07;;;;;;;5.95;2.60;;;;;;;28.33;47.45;96262.78;4999581;28;20050;-68
2023/07/28 10:53:33;;;;;;;7.63;2.55;;;;;;;28.76;45.73;96273.47;5002138;28;20617;-68
2023/07/28 10:56:02;;;;;;;5.40;2.63;;;;;;;28.42;45.50;96273.88;5004347;28;20034;-68
2023/07/28 10:58:27;;;;;;;4.15;2.63;;;;;;;29.05;46.05;96263.19;5000040;28;20066;-67
2023/07/28 11:00:52;;;;;;;5.25;2.60;;;;;;;28.91;44.94;96259.22;5003347;28;20072;-68
2023/07/28 11:03:19;;;;;;;5.13;2.35;;;;;;;28.84;44.85;96259.69;4999313;28;20050;-68
2023/07/28 11:05:45;;;;;;;6.32;2.60;;;;;;;29.09;44.04;96256.03;5003441;28;20038;-68
2023/07/28 11:08:11;;;;;;;4.10;2.75;;;;;;;28.73;45.63;96252.66;4999149;28;20049;-68
2023/07/28 11:10:37;;;;;;;4.82;2.17;;;;;;;28.42;44.42;96247.78;5004434;28;20409;-68
2023/07/28 11:13:05;;;;;;;5.68;2.78;;;;;;;28.56;45.28;96249.72;5001994;28;20042;-69
2023/07/28 11:15:31;;;;;;;9.45;2.70;;;;;;;28.74;45.60;96245.78;5003813;28;20683;-69
2023/07/28 11:17:57;;;;;;;11.63;2.80;;;;;;;29.08;44.68;96246.03;5004827;28;20050;-67
2023/07/28 11:20:26;;;;;;;7.18;2.60;;;;;;;29.03;44.17;96249.59;4996942;28;20139;-68
2023/07/28 11:22:57;;;;;;;3.85;2.33;;;;;;;29.41;44.40;96252.41;5003074;28;20038;-67